createdAt,value
2023-02-12T00:00:19.348Z,9.72
2023-02-12T00:02:22.426Z,9.76
2023-02-12T00:04:25.268Z,9.77
2023-02-12T00:06:28.469Z,9.60
2023-02-12T00:08:31.543Z,9.72
2023-02-12T00:10:36.199Z,9.63
2023-02-12T00:12:39.112Z,9.73
2023-02-12T00:14:42.032Z,9.74
2023-02-12T00:16:44.942Z,9.77
2023-02-12T00:18:47.844Z,9.78
2023-02-12T00:20:50.689Z,9.80
2023-02-12T00:22:53.443Z,9.79
2023-02-12T00:24:56.578Z,9.76
2023-02-12T00:27:00.742Z,9.71
2023-02-12T00:29:03.542Z,9.65
2023-02-12T00:31:07.943Z,9.58
2023-02-12T00:33:10.867Z,9.51
2023-02-12T00:35:14.324Z,9.57
2023-02-12T00:37:17.519Z,9.64
2023-02-12T00:39:20.389Z,9.68
2023-02-12T00:41:23.920Z,9.63
2023-02-12T00:43:28.531Z,9.63
2023-02-12T00:45:31.369Z,9.54
2023-02-12T00:47:34.340Z,9.54
2023-02-12T00:49:37.180Z,9.48
2023-02-12T00:51:39.979Z,9.49
2023-02-12T00:53:43.159Z,9.34
2023-02-12T00:55:45.949Z,9.25
2023-02-12T00:57:48.779Z,9.17
2023-02-12T00:59:52.975Z,9.24
2023-02-12T01:01:56.629Z,9.34
2023-02-12T01:04:00.134Z,9.41
2023-02-12T01:06:03.013Z,9.39
2023-02-12T01:08:06.225Z,9.37
2023-02-12T01:10:09.902Z,9.42
2023-02-12T01:12:12.800Z,9.42
2023-02-12T01:14:15.668Z,9.19
2023-02-12T01:16:21.224Z,9.30
2023-02-12T01:18:25.867Z,9.35
2023-02-12T01:20:28.658Z,9.33
2023-02-12T01:22:31.500Z,9.29
2023-02-12T01:24:34.357Z,9.36
2023-02-12T01:26:38.106Z,9.37
2023-02-12T01:28:41.888Z,9.40
2023-02-12T01:30:44.983Z,9.46
2023-02-12T01:32:49.266Z,9.43
2023-02-12T01:34:52.200Z,9.42
2023-02-12T01:36:57.615Z,9.50
2023-02-12T01:39:02.862Z,9.47
2023-02-12T01:41:06.739Z,9.45
2023-02-12T01:43:12.613Z,9.45
2023-02-12T01:45:46.775Z,9.46
2023-02-12T01:47:51.059Z,9.44
2023-02-12T01:49:53.878Z,9.51
2023-02-12T01:52:00.615Z,9.49
2023-02-12T01:54:05.717Z,9.48
2023-02-12T01:56:09.822Z,9.53
2023-02-12T01:58:12.676Z,9.45
2023-02-12T02:00:17.797Z,9.43
2023-02-12T02:02:20.730Z,9.44
2023-02-12T02:04:29.222Z,9.39
2023-02-12T02:06:33.864Z,9.47
2023-02-12T02:08:37.389Z,9.49
2023-02-12T02:10:40.389Z,9.47
2023-02-12T02:13:01.021Z,9.51
2023-02-12T02:15:05.138Z,9.59
2023-02-12T02:17:17.648Z,9.61
2023-02-12T02:19:30.959Z,9.59
2023-02-12T02:21:44.781Z,9.55
2023-02-12T02:24:00.655Z,9.61
2023-02-12T02:26:24.101Z,9.64
2023-02-12T02:28:44.386Z,9.56
2023-02-12T02:30:52.166Z,9.55
2023-02-12T02:33:14.947Z,9.61
2023-02-12T02:35:24.419Z,9.62
2023-02-12T02:37:29.888Z,9.62
2023-02-12T02:39:38.726Z,9.60
2023-02-12T02:41:46.041Z,9.68
2023-02-12T02:43:50.417Z,9.69
2023-02-12T02:45:57.930Z,9.72
2023-02-12T02:48:04.560Z,9.69
2023-02-12T02:50:09.250Z,9.64
2023-02-12T02:52:15.666Z,9.61
2023-02-12T02:54:20.957Z,9.60
2023-02-12T02:56:25.566Z,9.64
2023-02-12T02:58:35.253Z,9.57
2023-02-12T03:00:40.498Z,9.58
2023-02-12T03:02:48.477Z,9.62
2023-02-12T03:04:53.211Z,9.57
2023-02-12T03:07:00.527Z,9.56
2023-02-12T03:09:08.056Z,9.48
2023-02-12T03:11:15.096Z,9.46
2023-02-12T03:13:21.622Z,9.35
2023-02-12T03:15:29.799Z,9.33
2023-02-12T03:17:35.012Z,9.40
2023-02-12T03:19:43.148Z,9.39
2023-02-12T03:21:49.369Z,9.39
2023-02-12T03:23:56.702Z,9.38
2023-02-12T03:26:03.491Z,9.38
2023-02-12T03:28:10.448Z,9.39
2023-02-12T03:30:14.313Z,9.35
2023-02-12T03:32:30.806Z,9.29
2023-02-12T03:34:48.441Z,9.32
2023-02-12T03:36:54.158Z,9.29
2023-02-12T03:38:58.878Z,9.25
2023-02-12T03:41:05.911Z,9.21
2023-02-12T03:43:13.726Z,9.26
2023-02-12T03:45:24.051Z,9.17
2023-02-12T03:47:30.452Z,9.11
2023-02-12T03:49:39.619Z,9.05
2023-02-12T03:51:46.262Z,9.01
2023-02-12T03:53:49.663Z,9.13
2023-02-12T03:55:56.013Z,9.18
2023-02-12T03:58:01.559Z,9.19
2023-02-12T04:00:10.746Z,9.03
2023-02-12T04:02:23.354Z,9.00
2023-02-12T04:04:27.093Z,8.99
2023-02-12T04:06:30.269Z,8.93
2023-02-12T04:08:34.551Z,9.04
2023-02-12T04:10:46.226Z,9.10
2023-02-12T04:12:54.119Z,9.14
2023-02-12T04:15:08.508Z,9.19
2023-02-12T04:17:16.380Z,9.20
2023-02-12T04:19:26.976Z,9.22
2023-02-12T04:21:39.652Z,9.31
2023-02-12T04:23:49.840Z,9.37
2023-02-12T04:25:57.589Z,9.10
2023-02-12T04:28:08.255Z,9.14
2023-02-12T04:30:18.410Z,9.19
2023-02-12T04:32:26.175Z,9.21
2023-02-12T04:34:33.789Z,9.25
2023-02-12T04:36:41.481Z,9.26
2023-02-12T04:38:49.621Z,9.27
2023-02-12T04:40:53.386Z,9.30
2023-02-12T04:42:56.217Z,9.29
2023-02-12T04:44:59.053Z,9.33
2023-02-12T04:47:02.061Z,9.35
2023-02-12T04:49:04.898Z,9.26
2023-02-12T04:51:07.706Z,9.29
2023-02-12T04:53:11.700Z,9.27
2023-02-12T04:55:16.646Z,9.27
2023-02-12T04:57:19.490Z,9.28
2023-02-12T04:59:22.262Z,9.29
2023-02-12T05:01:25.206Z,9.26
2023-02-12T05:03:28.058Z,9.28
2023-02-12T05:05:30.871Z,9.22
2023-02-12T05:07:33.733Z,9.12
2023-02-12T05:09:36.541Z,9.25
2023-02-12T05:11:40.755Z,9.28
2023-02-12T05:13:43.523Z,9.29
2023-02-12T05:15:46.351Z,9.12
2023-02-12T05:17:49.353Z,9.06
2023-02-12T05:19:52.250Z,9.17
2023-02-12T05:21:55.077Z,9.20
2023-02-12T05:23:57.914Z,9.23
2023-02-12T05:26:02.142Z,9.17
2023-02-12T05:28:06.421Z,9.27
2023-02-12T05:30:10.552Z,9.23
2023-02-12T05:32:13.493Z,9.26
2023-02-12T05:34:16.316Z,9.30
2023-02-12T05:36:20.654Z,9.27
2023-02-12T05:38:23.743Z,9.10
2023-02-12T05:40:26.595Z,9.27
2023-02-12T05:42:30.492Z,9.29
2023-02-12T05:44:34.687Z,9.30
2023-02-12T05:46:37.508Z,9.32
2023-02-12T05:48:41.017Z,9.32
2023-02-12T05:50:43.789Z,9.31
2023-02-12T05:52:46.817Z,9.37
2023-02-12T05:54:50.686Z,9.41
2023-02-12T05:56:53.544Z,9.39
2023-02-12T05:58:57.941Z,9.38
2023-02-12T06:01:02.112Z,9.21
2023-02-12T06:03:05.035Z,9.30
2023-02-12T06:05:08.222Z,9.24
2023-02-12T06:07:11.027Z,9.32
2023-02-12T06:09:14.891Z,9.34
2023-02-12T06:11:19.356Z,9.33
2023-02-12T06:13:22.123Z,9.36
2023-02-12T06:15:25.013Z,9.38
2023-02-12T06:17:29.208Z,9.30
2023-02-12T06:19:32.044Z,9.34
2023-02-12T06:21:34.945Z,9.30
2023-02-12T06:23:38.119Z,9.34
2023-02-12T06:25:40.916Z,9.34
2023-02-12T06:27:43.774Z,9.35
2023-02-12T06:29:46.799Z,9.35
2023-02-12T06:31:50.209Z,9.32
2023-02-12T06:33:55.024Z,9.19
2023-02-12T06:35:58.177Z,9.21
2023-02-12T06:38:01.222Z,9.31
2023-02-12T06:40:04.015Z,9.17
2023-02-12T06:42:06.945Z,9.27
2023-02-12T06:44:09.785Z,9.30
2023-02-12T06:46:12.942Z,9.31
2023-02-12T06:48:15.780Z,9.34
2023-02-12T06:50:20.359Z,9.32
2023-02-12T06:52:23.248Z,9.33
2023-02-12T06:54:26.103Z,9.19
2023-02-12T06:56:28.911Z,9.28
2023-02-12T06:58:31.792Z,9.29
2023-02-12T07:00:34.692Z,9.21
2023-02-12T07:02:39.097Z,9.22
2023-02-12T07:04:42.020Z,9.17
2023-02-12T07:06:46.263Z,9.09
2023-02-12T07:08:51.798Z,9.09
2023-02-12T07:10:54.683Z,9.16
2023-02-12T07:12:57.556Z,9.21
2023-02-12T07:15:00.386Z,9.24
2023-02-12T07:17:03.927Z,9.30
2023-02-12T07:19:06.776Z,9.28
2023-02-12T07:21:10.594Z,9.19
2023-02-12T07:23:15.010Z,9.17
2023-02-12T07:25:17.913Z,9.21
2023-02-12T07:27:20.749Z,9.20
2023-02-12T07:29:23.670Z,9.18
2023-02-12T07:31:26.706Z,9.14
2023-02-12T07:33:29.569Z,9.19
2023-02-12T07:35:32.453Z,9.13
2023-02-12T07:37:35.253Z,9.21
2023-02-12T07:39:39.480Z,9.29
2023-02-12T07:41:42.417Z,9.27
2023-02-12T07:43:46.647Z,9.24
2023-02-12T07:45:49.556Z,9.35
2023-02-12T07:47:52.583Z,9.39
2023-02-12T07:49:55.634Z,9.46
2023-02-12T07:51:58.582Z,9.44
2023-02-12T07:54:01.753Z,9.50
2023-02-12T07:56:11.445Z,9.55
2023-02-12T07:58:14.299Z,9.54
2023-02-12T08:00:18.059Z,9.42
2023-02-12T08:02:21.224Z,9.51
2023-02-12T08:04:26.137Z,9.48
2023-02-12T08:06:31.679Z,9.56
2023-02-12T08:08:34.853Z,9.64
2023-02-12T08:10:37.684Z,9.49
2023-02-12T08:12:41.864Z,9.68
2023-02-12T08:14:44.870Z,9.75
2023-02-12T08:16:48.962Z,9.65
2023-02-12T08:18:52.609Z,9.67
2023-02-12T08:20:55.415Z,9.82
2023-02-12T08:22:58.792Z,9.87
2023-02-12T08:25:01.608Z,9.74
2023-02-12T08:27:06.175Z,9.92
2023-02-12T08:29:12.181Z,9.93
2023-02-12T08:31:17.026Z,10.02
2023-02-12T08:33:19.914Z,10.02
2023-02-12T08:35:22.754Z,10.04
2023-02-12T08:37:25.593Z,10.04
2023-02-12T08:39:30.674Z,10.04
2023-02-12T08:41:33.904Z,10.07
2023-02-12T08:43:37.249Z,10.20
2023-02-12T08:45:41.498Z,10.22
2023-02-12T08:47:44.335Z,10.19
2023-02-12T08:49:47.214Z,10.29
2023-02-12T08:51:51.489Z,10.32
2023-02-12T08:53:55.781Z,10.19
2023-02-12T08:55:58.592Z,10.25
2023-02-12T08:58:02.665Z,10.09
2023-02-12T09:00:06.477Z,10.05
2023-02-12T09:02:11.944Z,9.92
2023-02-12T09:04:17.846Z,10.00
2023-02-12T09:06:22.358Z,9.82
2023-02-12T09:08:25.167Z,10.09
2023-02-12T09:10:27.986Z,10.17
2023-02-12T09:12:30.797Z,10.07
2023-02-12T09:14:33.624Z,10.32
2023-02-12T09:16:37.625Z,10.39
2023-02-12T09:18:41.841Z,10.32
2023-02-12T09:20:45.756Z,10.33
2023-02-12T09:22:48.538Z,10.49
2023-02-12T09:24:51.355Z,10.61
2023-02-12T09:26:54.228Z,10.61
2023-02-12T09:28:57.197Z,10.59
2023-02-12T09:31:00.120Z,10.65
2023-02-12T09:33:03.057Z,10.78
2023-02-12T09:35:07.911Z,10.75
2023-02-12T09:37:10.800Z,10.84
2023-02-12T09:39:13.683Z,10.89
2023-02-12T09:41:51.868Z,11.00
2023-02-12T09:43:57.645Z,11.09
2023-02-12T09:46:04.509Z,10.91
2023-02-12T09:48:19.940Z,11.04
2023-02-12T09:50:33.621Z,11.16
2023-02-12T09:52:37.332Z,11.20
2023-02-12T09:54:40.803Z,11.23
2023-02-12T09:56:47.204Z,11.28
2023-02-12T09:58:52.895Z,11.35
2023-02-12T10:00:55.741Z,11.49
2023-02-12T10:03:03.994Z,11.55
2023-02-12T10:05:16.093Z,11.59
2023-02-12T10:07:28.014Z,11.71
2023-02-12T10:09:48.310Z,11.77
2023-02-12T10:11:56.661Z,11.90
2023-02-12T10:14:09.774Z,12.02
2023-02-12T10:16:18.385Z,12.07
2023-02-12T10:18:42.007Z,12.18
2023-02-12T10:20:54.013Z,12.16
2023-02-12T10:23:04.662Z,12.15
2023-02-12T10:25:16.793Z,12.21
2023-02-12T10:27:27.194Z,12.02
2023-02-12T10:29:33.466Z,11.97
2023-02-12T10:31:38.584Z,12.08
2023-02-12T10:33:44.478Z,12.17
2023-02-12T10:35:51.210Z,12.27
2023-02-12T10:37:57.635Z,12.46
2023-02-12T10:40:05.684Z,12.11
2023-02-12T10:42:11.875Z,12.43
2023-02-12T10:44:14.744Z,12.47
2023-02-12T10:46:18.167Z,12.53
2023-02-12T10:48:23.322Z,12.50
2023-02-12T10:50:30.599Z,12.58
2023-02-12T10:52:41.019Z,12.70
2023-02-12T10:54:45.288Z,12.72
2023-02-12T10:56:49.495Z,12.63
2023-02-12T10:58:57.563Z,12.69
2023-02-12T11:01:01.568Z,12.77
2023-02-12T11:03:21.285Z,12.05
2023-02-12T11:05:26.336Z,12.50
2023-02-12T11:07:29.845Z,12.61
2023-02-12T11:09:36.527Z,12.44
2023-02-12T11:11:39.993Z,12.58
2023-02-12T11:13:46.746Z,12.52
2023-02-12T11:15:50.083Z,12.51
2023-02-12T11:18:00.942Z,12.38
2023-02-12T11:20:09.730Z,12.51
2023-02-12T11:22:14.594Z,12.67
2023-02-12T11:24:38.631Z,12.57
2023-02-12T11:26:42.394Z,12.69
2023-02-12T11:28:54.842Z,12.67
2023-02-12T11:31:00.218Z,12.73
2023-02-12T11:33:17.350Z,12.74
2023-02-12T11:35:25.843Z,12.76
2023-02-12T11:37:28.740Z,12.71
2023-02-12T11:39:33.874Z,12.64
2023-02-12T11:41:38.886Z,12.68
2023-02-12T11:43:41.888Z,12.67
2023-02-12T11:45:47.957Z,12.70
2023-02-12T11:47:51.804Z,12.75
2023-02-12T11:49:56.766Z,12.76
2023-02-12T11:52:02.804Z,12.73
2023-02-12T11:54:07.371Z,12.57
2023-02-12T11:56:12.536Z,12.56
2023-02-12T11:58:16.811Z,12.53
2023-02-12T12:00:22.723Z,12.25
2023-02-12T12:02:35.870Z,12.19
2023-02-12T12:04:40.411Z,12.02
2023-02-12T12:06:47.446Z,12.00
2023-02-12T12:08:53.844Z,12.13
2023-02-12T12:10:58.484Z,12.05
2023-02-12T12:13:04.873Z,12.09
2023-02-12T12:15:34.339Z,12.02
2023-02-12T12:18:01.315Z,12.10
2023-02-12T12:20:07.276Z,12.10
2023-02-12T12:22:15.910Z,12.05
2023-02-12T12:24:21.839Z,12.05
2023-02-12T12:26:26.621Z,11.99
2023-02-12T12:28:33.181Z,12.03
2023-02-12T12:30:48.165Z,12.07
2023-02-12T12:32:53.941Z,12.05
2023-02-12T12:34:56.805Z,12.05
2023-02-12T12:37:18.728Z,12.03
2023-02-12T12:39:29.115Z,12.06
2023-02-12T12:41:39.128Z,11.94
2023-02-12T12:43:50.381Z,12.13
2023-02-12T12:46:11.377Z,12.15
2023-02-12T12:48:25.091Z,12.17
2023-02-12T12:50:36.677Z,12.17
2023-02-12T12:53:01.786Z,12.19
2023-02-12T12:55:28.818Z,12.13
2023-02-12T12:57:41.133Z,11.89
2023-02-12T13:00:12.790Z,12.02
2023-02-12T13:02:44.906Z,11.95
2023-02-12T13:05:02.666Z,12.05
2023-02-12T13:07:28.580Z,12.05
2023-02-12T13:09:43.928Z,12.04
2023-02-12T13:11:55.981Z,12.08
2023-02-12T13:14:06.083Z,12.01
2023-02-12T13:16:15.219Z,12.07
2023-02-12T13:18:24.867Z,12.07
2023-02-12T13:20:37.200Z,11.94
2023-02-12T13:22:46.593Z,11.86
2023-02-12T13:24:53.882Z,11.89
2023-02-12T13:26:58.621Z,11.95
2023-02-12T13:29:05.409Z,11.98
2023-02-12T13:31:31.851Z,11.98
2023-02-12T13:33:41.317Z,11.80
2023-02-12T13:35:47.533Z,11.83
2023-02-12T13:37:52.764Z,11.82
2023-02-12T13:40:00.174Z,11.84
2023-02-12T13:42:14.001Z,11.77
2023-02-12T13:44:26.348Z,11.74
2023-02-12T13:46:35.656Z,11.72
2023-02-12T13:48:49.335Z,11.54
2023-02-12T13:51:01.253Z,11.41
2023-02-12T13:53:10.984Z,11.39
2023-02-12T13:55:23.609Z,11.21
2023-02-12T13:57:26.529Z,11.20
2023-02-12T13:59:48.950Z,11.18
2023-02-12T14:01:52.382Z,11.24
2023-02-12T14:03:55.349Z,11.17
2023-02-12T14:06:17.028Z,11.18
2023-02-12T14:08:40.042Z,11.15
2023-02-12T14:10:43.187Z,11.16
2023-02-12T14:12:46.984Z,11.17
2023-02-12T14:14:52.070Z,11.06
2023-02-12T14:16:54.985Z,11.08
2023-02-12T14:19:31.446Z,11.11
2023-02-12T14:21:39.434Z,11.08
2023-02-12T14:23:43.409Z,11.16
2023-02-12T14:25:48.160Z,11.17
2023-02-12T14:27:51.855Z,11.13
2023-02-12T14:30:27.855Z,11.16
2023-02-12T14:32:58.454Z,11.13
2023-02-12T14:35:31.713Z,11.21
2023-02-12T14:37:38.221Z,11.15
2023-02-12T14:39:41.403Z,11.20
2023-02-12T14:41:44.329Z,11.27
2023-02-12T14:44:02.517Z,11.13
2023-02-12T14:46:42.328Z,11.19
2023-02-12T14:48:53.426Z,11.22
2023-02-12T14:50:56.523Z,11.15
2023-02-12T14:53:14.855Z,11.10
2023-02-12T14:55:23.820Z,11.05
2023-02-12T14:57:29.046Z,10.96
2023-02-12T14:59:35.396Z,11.02
2023-02-12T15:01:38.519Z,11.01
2023-02-12T15:03:44.355Z,10.99
2023-02-12T15:05:51.400Z,10.89
2023-02-12T15:07:58.359Z,10.82
2023-02-12T15:10:10.171Z,10.83
2023-02-12T15:12:18.659Z,10.76
2023-02-12T15:14:24.507Z,10.81
2023-02-12T15:16:33.846Z,10.85
2023-02-12T15:18:45.074Z,10.85
2023-02-12T15:20:51.811Z,10.86
2023-02-12T15:22:54.913Z,10.88
2023-02-12T15:25:17.572Z,10.92
2023-02-12T15:27:21.732Z,10.95
2023-02-12T15:29:27.269Z,11.04
2023-02-12T15:31:32.347Z,11.06
2023-02-12T15:33:37.205Z,11.03
2023-02-12T15:35:45.193Z,11.01
2023-02-12T15:37:48.635Z,11.00
2023-02-12T15:39:54.587Z,11.03
2023-02-12T15:41:58.858Z,11.08
2023-02-12T15:44:03.042Z,11.02
2023-02-12T15:46:07.820Z,10.98
2023-02-12T15:48:15.039Z,10.99
2023-02-12T15:50:19.120Z,11.04
2023-02-12T15:52:24.760Z,11.08
2023-02-12T15:54:28.524Z,11.03
2023-02-12T15:56:32.009Z,11.04
2023-02-12T15:58:44.076Z,11.04
2023-02-12T16:00:48.101Z,11.00
2023-02-12T16:02:53.055Z,10.95
2023-02-12T16:04:56.371Z,10.97
2023-02-12T16:06:59.870Z,11.00
2023-02-12T16:09:05.827Z,11.00
2023-02-12T16:11:14.701Z,11.00
2023-02-12T16:13:19.544Z,10.96
2023-02-12T16:15:30.810Z,10.92
2023-02-12T16:17:36.558Z,10.94
2023-02-12T16:19:39.429Z,10.90
2023-02-12T16:21:42.418Z,10.80
2023-02-12T16:23:46.058Z,10.73
2023-02-12T16:25:55.812Z,10.68
2023-02-12T16:28:00.786Z,10.66
2023-02-12T16:30:07.090Z,10.61
2023-02-12T16:32:29.037Z,10.61
2023-02-12T16:34:36.789Z,10.71
2023-02-12T16:36:48.198Z,10.66
2023-02-12T16:38:52.235Z,10.62
2023-02-12T16:41:31.799Z,10.57
2023-02-12T16:43:34.650Z,10.60
2023-02-12T16:45:46.723Z,10.63
2023-02-12T16:47:52.062Z,10.55
2023-02-12T16:49:56.154Z,10.52
2023-02-12T16:52:22.899Z,10.57
2023-02-12T16:54:31.820Z,10.51
2023-02-12T16:56:38.738Z,10.52
2023-02-12T16:58:41.793Z,10.55
2023-02-12T17:00:44.738Z,10.49
2023-02-12T17:02:48.124Z,10.56
2023-02-12T17:04:52.366Z,10.60
2023-02-12T17:06:55.223Z,10.54
2023-02-12T17:08:58.417Z,10.62
2023-02-12T17:11:01.340Z,10.49
2023-02-12T17:13:04.234Z,10.47
2023-02-12T17:15:07.318Z,10.44
2023-02-12T17:17:10.222Z,10.47
2023-02-12T17:19:13.394Z,10.44
2023-02-12T17:21:22.326Z,10.50
2023-02-12T17:23:25.980Z,10.46
2023-02-12T17:25:30.104Z,10.45
2023-02-12T17:27:32.958Z,10.46
2023-02-12T17:29:35.893Z,10.50
2023-02-12T17:31:39.240Z,10.35
2023-02-12T17:33:42.329Z,10.39
2023-02-12T17:35:45.269Z,10.27
2023-02-12T17:37:49.471Z,10.33
2023-02-12T17:39:52.459Z,10.38
2023-02-12T17:41:55.359Z,10.36
2023-02-12T17:43:58.362Z,10.22
2023-02-12T17:46:01.525Z,10.22
2023-02-12T17:48:04.791Z,10.20
2023-02-12T17:50:09.478Z,10.20
2023-02-12T17:52:12.410Z,10.26
2023-02-12T17:54:17.671Z,10.30
2023-02-12T17:56:25.504Z,10.30
2023-02-12T17:58:28.354Z,10.38
2023-02-12T18:00:31.279Z,10.41
2023-02-12T18:02:34.216Z,10.37
2023-02-12T18:04:37.079Z,10.31
2023-02-12T18:06:40.026Z,10.28
2023-02-12T18:08:43.551Z,10.23
2023-02-12T18:10:47.796Z,10.31
2023-02-12T18:12:50.640Z,10.38
2023-02-12T18:14:57.822Z,10.39
2023-02-12T18:17:01.137Z,10.38
2023-02-12T18:19:05.726Z,10.32
2023-02-12T18:21:09.882Z,10.34
2023-02-12T18:23:12.728Z,10.29
2023-02-12T18:25:16.847Z,10.26
2023-02-12T18:27:21.640Z,10.33
2023-02-12T18:29:24.481Z,10.25
2023-02-12T18:31:27.583Z,10.18
2023-02-12T18:33:30.752Z,10.23
2023-02-12T18:35:33.667Z,10.31
2023-02-12T18:37:36.675Z,10.32
2023-02-12T18:39:39.840Z,10.26
2023-02-12T18:41:42.732Z,10.30
2023-02-12T18:43:47.810Z,10.23
2023-02-12T18:45:50.676Z,10.25
2023-02-12T18:47:53.559Z,10.25
2023-02-12T18:49:57.956Z,10.14
2023-02-12T18:52:01.982Z,10.17
2023-02-12T18:54:07.857Z,10.22
2023-02-12T18:56:12.596Z,10.11
2023-02-12T18:58:15.462Z,10.12
2023-02-12T19:00:20.719Z,10.07
2023-02-12T19:02:23.776Z,10.15
2023-02-12T19:04:27.946Z,10.13
2023-02-12T19:06:32.397Z,10.12
2023-02-12T19:08:35.249Z,10.12
2023-02-12T19:10:40.013Z,10.09
2023-02-12T19:12:43.003Z,10.10
2023-02-12T19:14:45.919Z,10.13
2023-02-12T19:16:51.796Z,10.10
2023-02-12T19:18:58.351Z,10.15
2023-02-12T19:21:01.349Z,10.14
2023-02-12T19:23:04.280Z,10.18
2023-02-12T19:25:07.900Z,10.15
2023-02-12T19:27:11.387Z,10.15
2023-02-12T19:29:14.587Z,10.18
2023-02-12T19:31:19.258Z,10.15
2023-02-12T19:33:23.525Z,10.11
2023-02-12T19:35:26.407Z,9.96
2023-02-12T19:37:29.544Z,10.00
2023-02-12T19:39:32.493Z,10.09
2023-02-12T19:41:40.771Z,10.07
2023-02-12T19:43:44.692Z,10.02
2023-02-12T19:45:47.666Z,10.00
2023-02-12T19:47:51.777Z,9.96
2023-02-12T19:49:55.954Z,10.02
2023-02-12T19:51:58.927Z,9.95
2023-02-12T19:54:02.666Z,9.98
2023-02-12T19:56:07.261Z,10.00
2023-02-12T19:58:10.210Z,9.98
2023-02-12T20:00:14.831Z,9.90
2023-02-12T20:02:18.255Z,9.80
2023-02-12T20:04:22.644Z,9.84
2023-02-12T20:06:29.161Z,9.87
2023-02-12T20:08:33.555Z,9.82
2023-02-12T20:10:36.378Z,9.86
2023-02-12T20:12:41.178Z,9.82
2023-02-12T20:14:44.011Z,9.84
2023-02-12T20:16:47.950Z,9.83
2023-02-12T20:18:53.495Z,9.78
2023-02-12T20:20:56.654Z,9.78
2023-02-12T20:23:01.254Z,9.75
2023-02-12T20:25:04.209Z,9.74
2023-02-12T20:27:07.074Z,9.76
2023-02-12T20:29:10.029Z,9.71
2023-02-12T20:31:14.832Z,9.75
2023-02-12T20:33:17.810Z,9.69
2023-02-12T20:35:21.752Z,9.61
2023-02-12T20:37:24.630Z,9.63
2023-02-12T20:39:28.890Z,9.66
2023-02-12T20:41:31.780Z,9.56
2023-02-12T20:43:35.326Z,9.68
2023-02-12T20:45:38.238Z,9.83
2023-02-12T20:47:41.147Z,9.81
2023-02-12T20:49:43.987Z,9.81
2023-02-12T20:51:48.464Z,9.87
2023-02-12T20:53:51.824Z,9.93
2023-02-12T20:55:56.038Z,9.90
2023-02-12T20:57:59.217Z,9.71
2023-02-12T21:00:02.599Z,9.84
2023-02-12T21:02:05.900Z,9.84
2023-02-12T21:04:10.524Z,9.79
2023-02-12T21:06:13.550Z,9.77
2023-02-12T21:08:16.392Z,9.68
2023-02-12T21:10:19.410Z,9.77
2023-02-12T21:12:23.700Z,9.74
2023-02-12T21:14:26.868Z,9.72
2023-02-12T21:16:31.262Z,9.76
2023-02-12T21:18:34.379Z,9.66
2023-02-12T21:20:37.365Z,9.68
2023-02-12T21:22:40.194Z,9.76
2023-02-12T21:24:43.025Z,9.63
2023-02-12T21:26:46.314Z,9.61
2023-02-12T21:28:51.409Z,9.67
2023-02-12T21:30:54.518Z,9.57
2023-02-12T21:32:57.520Z,9.56
2023-02-12T21:35:00.410Z,9.60
2023-02-12T21:37:03.431Z,9.67
2023-02-12T21:39:07.851Z,9.65
2023-02-12T21:41:12.851Z,9.69
2023-02-12T21:43:15.715Z,9.62
2023-02-12T21:45:20.188Z,9.65
2023-02-12T21:47:23.014Z,9.61
2023-02-12T21:49:27.639Z,9.63
2023-02-12T21:51:32.040Z,9.66
2023-02-12T21:53:34.918Z,9.57
2023-02-12T21:55:38.062Z,9.47
2023-02-12T21:57:40.930Z,9.44
2023-02-12T21:59:43.817Z,9.40
2023-02-12T22:01:50.071Z,9.43
2023-02-12T22:03:53.626Z,9.51
2023-02-12T22:06:00.949Z,9.58
2023-02-12T22:08:04.553Z,9.55
2023-02-12T22:10:09.351Z,9.46
2023-02-12T22:12:12.272Z,9.51
2023-02-12T22:14:17.918Z,9.47
2023-02-12T22:16:22.861Z,9.61
2023-02-12T22:18:27.111Z,9.57
2023-02-12T22:20:29.954Z,9.69
2023-02-12T22:22:32.809Z,9.65
2023-02-12T22:24:37.182Z,9.56
2023-02-12T22:26:40.002Z,9.60
2023-02-12T22:28:44.318Z,9.46
2023-02-12T22:30:47.632Z,9.47
2023-02-12T22:32:50.544Z,9.44
2023-02-12T22:34:54.997Z,9.46
2023-02-12T22:36:57.830Z,9.51
2023-02-12T22:39:01.645Z,9.55
2023-02-12T22:41:04.775Z,9.55
2023-02-12T22:43:07.625Z,9.50
2023-02-12T22:45:10.791Z,9.48
2023-02-12T22:47:13.726Z,9.43
2023-02-12T22:49:16.989Z,9.45
2023-02-12T22:51:22.974Z,9.44
2023-02-12T22:53:26.599Z,9.50
2023-02-12T22:55:29.522Z,9.41
2023-02-12T22:57:32.362Z,9.46
2023-02-12T22:59:35.167Z,9.48
2023-02-12T23:01:38.840Z,9.54
2023-02-12T23:03:42.526Z,9.43
2023-02-12T23:05:45.413Z,9.49
2023-02-12T23:07:49.617Z,9.50
2023-02-12T23:09:52.525Z,9.47
2023-02-12T23:11:55.604Z,9.41
2023-02-12T23:13:58.840Z,9.48
2023-02-12T23:16:01.915Z,9.55
2023-02-12T23:18:06.090Z,9.68
2023-02-12T23:20:10.120Z,9.73
2023-02-12T23:22:13.099Z,9.72
2023-02-12T23:24:17.416Z,9.76
2023-02-12T23:26:20.403Z,9.83
2023-02-12T23:28:23.875Z,9.77
2023-02-12T23:30:26.849Z,9.75
2023-02-12T23:32:29.779Z,9.79
2023-02-12T23:34:32.654Z,9.75
2023-02-12T23:36:35.492Z,9.78
2023-02-12T23:38:38.328Z,9.68
2023-02-12T23:40:42.748Z,9.69
2023-02-12T23:42:46.638Z,9.66
2023-02-12T23:44:49.585Z,9.73
2023-02-12T23:46:53.831Z,9.76
2023-02-12T23:48:56.667Z,9.76
2023-02-12T23:50:59.836Z,9.77
2023-02-12T23:53:02.809Z,9.74
2023-02-12T23:55:06.212Z,9.68
2023-02-12T23:57:10.418Z,9.65
2023-02-12T23:59:13.266Z,9.63
